Terminal Aerodrome Forecast
Issued by NWS

Home | Current Version | Previous Version | Text Only | Print | Product List | Glossary On
Versions: 1 2 3 4 5 6 7 8 9 10 11 12 13 14
057
FTUS46 KMTR 031120
TAFSTS
TAF
KSTS 031120Z 0312/0412 18003KT P6SM OVC006
     FM031900 VRB03KT P6SM SCT012 BKN200
     FM032100 19010KT P6SM BKN200
     FM040500 16004KT P6SM BKN015
     FM040900 22003KT P6SM OVC020=

USA.gov is the U.S. government's official web portal to all federal, state and local government web resources and services.